< < Back
Terminal Aerodrome Forecast


Current Version              Previous Versions:   1  2  3  4  5  6  7  8  9  

Terminal Aerodrome Forecast

445
FTUS42 KTAE 162300
TAFTLH
TAF
KTLH 162338Z 1700/1724 06007KT P6SM SKC
     FM170300 08006KT P6SM SCT030
     FM170900 06008KT P6SM BKN015
     FM171600 08010G15KT P6SM BKN025 BKN100=



Latest METAR

276
SAUS80 KWBC 171900 RRA
MTRTLH
METAR KTLH 171853Z 08013G21KT 10SM BKN028 BKN070 23/12 A3022 RMK AO2
SLP232 T02280122


USA.gov is the U.S. government's official web portal to all federal, state and local government web resources and services.